createdAt,value
2019-05-14T00:00:10.834Z,85.55
2019-05-14T00:01:11.837Z,84.30
2019-05-14T00:02:12.519Z,85.24
2019-05-14T00:03:12.321Z,85.55
2019-05-14T00:04:11.690Z,84.30
2019-05-14T00:05:12.659Z,82.79
2019-05-14T00:06:11.835Z,82.89
2019-05-14T00:07:11.999Z,81.09
2019-05-14T00:08:12.156Z,81.51
2019-05-14T00:09:12.334Z,82.13
2019-05-14T00:10:12.486Z,84.13
2019-05-14T00:11:13.106Z,84.13
2019-05-14T00:12:13.810Z,80.92
2019-05-14T00:13:12.942Z,80.05
2019-05-14T00:14:13.120Z,81.40
2019-05-14T00:15:13.304Z,79.95
2019-05-14T00:16:13.524Z,80.43
2019-05-14T00:17:13.702Z,79.81
2019-05-14T00:18:13.861Z,80.22
2019-05-14T00:19:14.046Z,79.47
2019-05-14T00:20:14.219Z,78.47
2019-05-14T00:21:14.411Z,78.99
2019-05-14T00:22:14.582Z,78.85
2019-05-14T00:23:14.759Z,79.05
2019-05-14T00:24:14.919Z,79.36
2019-05-14T00:25:15.088Z,78.95
2019-05-14T00:26:15.299Z,79.81
2019-05-14T00:27:15.475Z,79.40
2019-05-14T00:28:31.734Z,80.43
2019-05-14T00:29:15.794Z,81.37
2019-05-14T00:30:15.978Z,80.12
2019-05-14T00:31:16.175Z,79.91
2019-05-14T00:32:16.351Z,80.64
2019-05-14T00:33:16.590Z,80.74
2019-05-14T00:34:16.785Z,80.95
2019-05-14T00:35:16.971Z,80.74
2019-05-14T00:36:17.179Z,81.05
2019-05-14T00:37:17.387Z,81.05
2019-05-14T00:38:17.560Z,81.09
2019-05-14T00:39:17.713Z,80.33
2019-05-14T00:40:17.883Z,79.81
2019-05-14T00:41:18.068Z,80.54
2019-05-14T00:42:18.330Z,80.54
2019-05-14T00:43:18.406Z,80.33
2019-05-14T00:44:18.574Z,81.57
2019-05-14T00:45:18.724Z,81.88
2019-05-14T00:46:21.092Z,81.68
2019-05-14T00:47:19.020Z,81.09
2019-05-14T00:48:19.236Z,80.88
2019-05-14T00:49:21.213Z,81.20
2019-05-14T00:50:21.466Z,82.65
2019-05-14T00:51:21.518Z,82.13
2019-05-14T00:52:22.068Z,81.51
2019-05-14T00:53:21.276Z,81.71
2019-05-14T00:54:21.630Z,81.65
2019-05-14T00:55:22.307Z,81.75
2019-05-14T00:56:21.749Z,83.31
2019-05-14T00:57:21.769Z,84.03
2019-05-14T00:58:21.955Z,82.89
2019-05-14T00:59:21.624Z,83.00
2019-05-14T01:00:22.259Z,83.20
2019-05-14T01:01:21.623Z,83.65
2019-05-14T01:02:22.585Z,86.55
2019-05-14T01:03:21.933Z,85.63
2019-05-14T01:04:22.895Z,84.07
2019-05-14T01:05:22.052Z,84.38
2019-05-14T01:06:22.227Z,84.69
2019-05-14T01:07:22.406Z,86.87
2019-05-14T01:08:22.630Z,86.15
2019-05-14T01:09:22.828Z,84.90
2019-05-14T01:10:23.012Z,85.46
2019-05-14T01:11:23.215Z,84.63
2019-05-14T01:12:23.391Z,85.04
2019-05-14T01:13:23.607Z,84.83
2019-05-14T01:14:23.802Z,84.73
2019-05-14T01:15:23.998Z,85.87
2019-05-14T01:16:24.111Z,86.60
2019-05-14T01:17:24.315Z,86.60
2019-05-14T01:18:24.513Z,86.85
2019-05-14T01:19:24.703Z,86.43
2019-05-14T01:20:24.904Z,86.47
2019-05-14T01:21:25.117Z,86.78
2019-05-14T01:22:25.273Z,86.99
2019-05-14T01:23:25.466Z,86.72
2019-05-14T01:24:25.660Z,87.55
2019-05-14T01:25:25.827Z,88.07
2019-05-14T01:26:27.036Z,89.31
2019-05-14T01:27:26.174Z,88.59
2019-05-14T01:28:26.365Z,89.77
2019-05-14T01:29:26.536Z,89.73
2019-05-14T01:30:26.718Z,89.94
2019-05-14T01:31:26.944Z,90.35
2019-05-14T01:32:27.143Z,89.77
2019-05-14T01:33:27.320Z,90.91
2019-05-14T01:34:27.536Z,90.70
2019-05-14T01:35:27.724Z,90.50
2019-05-14T01:36:27.896Z,91.12
2019-05-14T01:37:28.108Z,90.60
2019-05-14T01:38:28.319Z,90.70
2019-05-14T01:39:28.480Z,90.91
2019-05-14T01:40:31.249Z,91.95
2019-05-14T01:41:28.842Z,91.99
2019-05-14T01:42:29.041Z,92.05
2019-05-14T01:43:31.281Z,91.95
2019-05-14T01:44:31.745Z,91.89
2019-05-14T01:45:31.689Z,92.47
2019-05-14T01:46:31.670Z,92.30
2019-05-14T01:47:31.752Z,92.20
2019-05-14T01:48:31.282Z,91.99
2019-05-14T01:49:31.703Z,92.36
2019-05-14T01:50:32.274Z,92.05
2019-05-14T01:51:31.872Z,91.99
2019-05-14T01:52:31.926Z,91.83
2019-05-14T01:53:31.935Z,92.45
2019-05-14T01:54:31.721Z,92.03
2019-05-14T01:55:32.563Z,93.29
2019-05-14T01:56:32.437Z,94.12
2019-05-14T01:57:31.587Z,94.43
2019-05-14T01:58:31.748Z,94.80
2019-05-14T01:59:32.317Z,94.34
2019-05-14T02:00:33.095Z,93.66
2019-05-14T02:01:32.269Z,94.28
2019-05-14T02:02:32.479Z,94.24
2019-05-14T02:03:32.627Z,94.28
2019-05-14T02:04:32.799Z,93.82
2019-05-14T02:05:32.978Z,93.93
2019-05-14T02:06:33.146Z,94.24
2019-05-14T02:07:33.342Z,93.78
2019-05-14T02:08:33.495Z,93.26
2019-05-14T02:09:33.655Z,92.78
2019-05-14T02:10:33.846Z,93.20
2019-05-14T02:11:34.002Z,92.99
2019-05-14T02:12:34.148Z,92.99
2019-05-14T02:13:34.267Z,93.41
2019-05-14T02:14:34.415Z,93.10
2019-05-14T02:15:39.823Z,92.63
2019-05-14T02:16:36.788Z,92.01
2019-05-14T02:17:35.053Z,92.94
2019-05-14T02:18:35.212Z,92.84
2019-05-14T02:19:35.349Z,92.74
2019-05-14T02:20:35.499Z,92.53
2019-05-14T02:21:35.652Z,92.16
2019-05-14T02:22:35.844Z,92.78
2019-05-14T02:23:36.055Z,92.68
2019-05-14T02:24:36.268Z,92.16
2019-05-14T02:25:36.453Z,92.16
2019-05-14T02:26:36.640Z,92.57
2019-05-14T02:27:36.804Z,92.57
2019-05-14T02:28:36.986Z,91.95
2019-05-14T02:29:37.157Z,91.85
2019-05-14T02:30:48.072Z,92.57
2019-05-14T02:31:39.500Z,92.61
2019-05-14T02:32:40.454Z,92.72
2019-05-14T02:33:39.629Z,92.61
2019-05-14T02:34:40.115Z,92.61
2019-05-14T02:35:39.916Z,92.99
2019-05-14T02:36:40.130Z,92.61
2019-05-14T02:37:40.562Z,92.57
2019-05-14T02:38:39.092Z,92.99
2019-05-14T02:39:40.953Z,93.30
2019-05-14T02:40:40.704Z,92.78
2019-05-14T02:41:39.647Z,92.63
2019-05-14T02:42:40.426Z,92.36
2019-05-14T02:43:41.253Z,91.53
2019-05-14T02:44:40.974Z,92.05
2019-05-14T02:46:00.616Z,92.26
2019-05-14T02:46:42.559Z,92.05
2019-05-14T02:47:40.681Z,91.85
2019-05-14T02:48:40.891Z,91.64
2019-05-14T02:49:41.106Z,91.74
2019-05-14T02:50:41.292Z,92.53
2019-05-14T02:51:41.462Z,92.22
2019-05-14T02:52:41.646Z,92.63
2019-05-14T02:53:41.818Z,92.32
2019-05-14T02:54:42.060Z,91.28
2019-05-14T02:55:42.240Z,91.35
2019-05-14T02:56:42.406Z,91.55
2019-05-14T02:57:42.564Z,91.66
2019-05-14T02:58:42.745Z,91.52
2019-05-14T02:59:43.953Z,92.03
2019-05-14T03:00:43.084Z,92.14
2019-05-14T03:01:43.235Z,91.52
2019-05-14T03:02:43.405Z,91.00
2019-05-14T03:03:43.564Z,91.58
2019-05-14T03:04:43.741Z,91.78
2019-05-14T03:05:43.958Z,90.85
2019-05-14T03:06:44.156Z,90.75
2019-05-14T03:07:44.339Z,90.85
2019-05-14T03:08:44.519Z,90.54
2019-05-14T03:09:44.701Z,90.75
2019-05-14T03:10:44.926Z,90.75
2019-05-14T03:11:45.105Z,91.16
2019-05-14T03:12:45.284Z,90.75
2019-05-14T03:13:49.403Z,90.54
2019-05-14T03:14:45.640Z,90.64
2019-05-14T03:15:45.851Z,90.54
2019-05-14T03:16:49.317Z,90.69
2019-05-14T03:17:49.197Z,91.31
2019-05-14T03:18:46.442Z,91.24
2019-05-14T03:19:49.462Z,91.97
2019-05-14T03:20:50.037Z,91.97
2019-05-14T03:21:50.213Z,92.18
2019-05-14T03:23:02.519Z,92.43
2019-05-14T03:23:49.863Z,91.53
2019-05-14T03:24:50.175Z,91.53
2019-05-14T03:25:49.304Z,92.05
2019-05-14T03:26:49.908Z,93.82
2019-05-14T03:27:49.864Z,93.51
2019-05-14T03:28:49.938Z,92.99
2019-05-14T03:29:50.288Z,94.03
2019-05-14T03:30:52.134Z,92.47
2019-05-14T03:31:52.942Z,92.68
2019-05-14T03:32:52.797Z,92.43
2019-05-14T03:33:52.535Z,92.99
2019-05-14T03:34:53.220Z,92.36
2019-05-14T03:35:58.587Z,92.57
2019-05-14T03:36:53.172Z,92.05
2019-05-14T03:37:50.977Z,92.05
2019-05-14T03:38:50.460Z,92.57
2019-05-14T03:39:51.390Z,92.82
2019-05-14T03:40:50.520Z,92.93
2019-05-14T03:41:50.683Z,93.93
2019-05-14T03:42:50.912Z,93.97
2019-05-14T03:43:51.114Z,93.93
2019-05-14T03:44:51.306Z,94.03
2019-05-14T03:45:51.459Z,93.87
2019-05-14T03:46:55.450Z,94.03
2019-05-14T03:47:53.819Z,94.34
2019-05-14T03:48:51.930Z,94.65
2019-05-14T03:49:52.103Z,94.45
2019-05-14T03:50:52.276Z,94.55
2019-05-14T03:51:52.465Z,94.24
2019-05-14T03:52:52.631Z,94.24
2019-05-14T03:54:01.892Z,93.30
2019-05-14T03:54:54.915Z,93.93
2019-05-14T03:55:53.163Z,92.99
2019-05-14T03:56:53.360Z,93.10
2019-05-14T03:57:53.519Z,92.99
2019-05-14T03:58:53.667Z,94.03
2019-05-14T03:59:53.830Z,93.72
2019-05-14T04:00:54.009Z,93.41
2019-05-14T04:01:54.245Z,93.51
2019-05-14T04:02:54.408Z,93.62
2019-05-14T04:03:54.566Z,93.57
2019-05-14T04:04:54.729Z,93.99
2019-05-14T04:05:58.709Z,94.03
2019-05-14T04:06:55.129Z,94.30
2019-05-14T04:07:55.267Z,93.57
2019-05-14T04:08:55.402Z,93.16
2019-05-14T04:09:55.545Z,93.88
2019-05-14T04:10:58.841Z,94.30
2019-05-14T04:11:59.229Z,93.78
2019-05-14T04:12:59.850Z,93.88
2019-05-14T04:13:56.310Z,92.94
2019-05-14T04:14:59.390Z,93.05
2019-05-14T04:16:00.189Z,93.26
2019-05-14T04:17:08.903Z,93.05
2019-05-14T04:17:59.669Z,93.20
2019-05-14T04:18:59.436Z,93.20
2019-05-14T04:19:59.985Z,92.99
2019-05-14T04:20:59.470Z,93.93
2019-05-14T04:21:59.840Z,94.34
2019-05-14T04:23:00.046Z,94.03
2019-05-14T04:23:59.539Z,94.24
2019-05-14T04:24:59.855Z,94.24
2019-05-14T04:26:00.654Z,94.65
2019-05-14T04:27:07.227Z,94.34
2019-05-14T04:28:00.831Z,94.24
2019-05-14T04:29:00.383Z,94.13
2019-05-14T04:30:00.255Z,94.13
2019-05-14T04:30:59.861Z,94.03
2019-05-14T04:32:00.514Z,93.62
2019-05-14T04:32:59.629Z,93.72
2019-05-14T04:33:59.812Z,94.09
2019-05-14T04:35:00.043Z,94.30
2019-05-14T04:36:00.525Z,93.84
2019-05-14T04:37:00.353Z,93.80
2019-05-14T04:38:00.520Z,93.18
2019-05-14T04:39:00.903Z,91.93
2019-05-14T04:40:00.898Z,92.51
2019-05-14T04:41:01.051Z,91.99
2019-05-14T04:42:02.238Z,91.99
2019-05-14T04:43:01.396Z,91.53
2019-05-14T04:44:01.490Z,92.53
2019-05-14T04:45:05.537Z,91.80
2019-05-14T04:46:02.871Z,90.93
2019-05-14T04:47:21.520Z,89.69
2019-05-14T04:48:24.095Z,88.71
2019-05-14T04:49:03.358Z,88.71
2019-05-14T04:50:02.505Z,87.57
2019-05-14T04:51:02.689Z,87.64
2019-05-14T04:52:02.869Z,86.57
2019-05-14T04:53:03.063Z,87.39
2019-05-14T04:54:03.222Z,86.98
2019-05-14T04:55:03.397Z,86.98
2019-05-14T04:56:03.626Z,84.36
2019-05-14T04:57:03.841Z,83.73
2019-05-14T04:58:04.000Z,83.73
2019-05-14T04:59:04.178Z,82.80
2019-05-14T05:00:04.370Z,82.08
2019-05-14T05:01:04.589Z,83.11
2019-05-14T05:02:04.746Z,82.18
2019-05-14T05:03:08.568Z,81.94
2019-05-14T05:04:09.587Z,81.11
2019-05-14T05:05:05.202Z,80.90
2019-05-14T05:06:05.404Z,81.90
2019-05-14T05:07:05.601Z,81.11
2019-05-14T05:08:08.861Z,82.10
2019-05-14T05:09:09.130Z,80.66
2019-05-14T05:10:06.074Z,81.07
2019-05-14T05:11:09.109Z,80.90
2019-05-14T05:12:09.124Z,80.66
2019-05-14T05:13:09.130Z,80.76
2019-05-14T05:14:08.875Z,79.42
2019-05-14T05:15:09.260Z,81.18
2019-05-14T05:16:09.960Z,80.49
2019-05-14T05:17:09.146Z,82.42
2019-05-14T05:18:09.573Z,82.79
2019-05-14T05:19:10.381Z,80.83
2019-05-14T05:20:09.913Z,80.42
2019-05-14T05:21:08.942Z,80.00
2019-05-14T05:22:08.191Z,80.52
2019-05-14T05:23:08.534Z,79.69
2019-05-14T05:24:09.471Z,80.48
2019-05-14T05:25:08.586Z,78.59
2019-05-14T05:26:09.387Z,78.42
2019-05-14T05:27:10.000Z,80.28
2019-05-14T05:28:09.103Z,78.21
2019-05-14T05:29:10.567Z,79.83
2019-05-14T05:30:10.473Z,80.60
2019-05-14T05:31:09.600Z,82.93
2019-05-14T05:32:09.759Z,81.18
2019-05-14T05:33:09.940Z,81.56
2019-05-14T05:34:10.108Z,82.69
2019-05-14T05:35:10.265Z,82.38
2019-05-14T05:36:10.464Z,81.41
2019-05-14T05:37:10.597Z,80.38
2019-05-14T05:38:10.769Z,81.07
2019-05-14T05:39:10.944Z,79.14
2019-05-14T05:40:11.116Z,78.83
2019-05-14T05:41:11.283Z,79.25
2019-05-14T05:42:11.427Z,79.55
2019-05-14T05:43:11.595Z,80.07
2019-05-14T05:44:11.771Z,81.58
2019-05-14T05:45:11.976Z,81.99
2019-05-14T05:46:12.144Z,79.83
2019-05-14T05:47:12.295Z,78.69
2019-05-14T05:48:12.450Z,79.11
2019-05-14T05:49:12.583Z,79.31
2019-05-14T05:50:12.753Z,78.24
2019-05-14T05:51:12.881Z,78.34
2019-05-14T05:52:13.016Z,79.17
2019-05-14T05:53:13.150Z,79.90
2019-05-14T05:54:13.349Z,78.62
2019-05-14T05:55:13.535Z,78.00
2019-05-14T05:56:13.716Z,79.38
2019-05-14T05:57:13.887Z,79.90
2019-05-14T05:58:14.019Z,79.90
2019-05-14T05:59:14.175Z,80.41
2019-05-14T06:00:15.382Z,79.34
2019-05-14T06:01:14.511Z,78.52
2019-05-14T06:02:14.689Z,77.76
2019-05-14T06:03:14.892Z,77.38
2019-05-14T06:04:15.043Z,79.24
2019-05-14T06:05:15.212Z,79.58
2019-05-14T06:06:15.389Z,80.62
2019-05-14T06:07:15.576Z,80.00
2019-05-14T06:08:15.769Z,78.04
2019-05-14T06:09:18.078Z,79.79
2019-05-14T06:10:18.571Z,79.44
2019-05-14T06:11:19.125Z,78.72
2019-05-14T06:12:18.824Z,78.62
2019-05-14T06:13:18.241Z,79.86
2019-05-14T06:14:18.636Z,79.10
2019-05-14T06:15:19.238Z,78.07
2019-05-14T06:16:18.633Z,77.66
2019-05-14T06:17:19.093Z,77.76
2019-05-14T06:18:21.952Z,78.17
2019-05-14T06:19:18.856Z,77.97
2019-05-14T06:20:18.960Z,78.28
2019-05-14T06:21:19.520Z,77.42
2019-05-14T06:22:19.039Z,78.75
2019-05-14T06:23:19.645Z,78.41
2019-05-14T06:24:19.325Z,76.25
2019-05-14T06:25:21.102Z,76.56
2019-05-14T06:26:20.217Z,76.52
2019-05-14T06:27:19.319Z,76.25
2019-05-14T06:28:20.864Z,76.66
2019-05-14T06:29:20.699Z,77.62
2019-05-14T06:30:19.850Z,76.90
2019-05-14T06:31:20.053Z,76.56
2019-05-14T06:32:20.250Z,77.11
2019-05-14T06:33:20.404Z,77.51
2019-05-14T06:34:20.578Z,77.21
2019-05-14T06:35:20.798Z,77.11
2019-05-14T06:36:21.009Z,77.31
2019-05-14T06:37:21.209Z,77.62
2019-05-14T06:38:21.406Z,77.28
2019-05-14T06:39:21.577Z,77.42
2019-05-14T06:40:21.746Z,80.85
2019-05-14T06:41:21.953Z,79.20
2019-05-14T06:42:22.176Z,79.51
2019-05-14T06:43:22.362Z,78.69
2019-05-14T06:44:22.548Z,79.06
2019-05-14T06:45:22.733Z,78.96
2019-05-14T06:46:22.969Z,77.97
2019-05-14T06:47:23.143Z,79.47
2019-05-14T06:48:30.680Z,79.99
2019-05-14T06:49:25.474Z,79.27
2019-05-14T06:50:23.709Z,80.91
2019-05-14T06:51:23.858Z,79.06
2019-05-14T06:52:24.038Z,79.27
2019-05-14T06:53:24.211Z,80.61
2019-05-14T06:54:24.386Z,78.03
2019-05-14T06:55:24.575Z,78.55
2019-05-14T06:56:24.745Z,80.19
2019-05-14T06:57:24.946Z,80.98
2019-05-14T06:58:25.131Z,79.75
2019-05-14T06:59:25.288Z,77.89
2019-05-14T07:00:25.419Z,78.61
2019-05-14T07:01:25.542Z,79.03
2019-05-14T07:02:28.353Z,79.44
2019-05-14T07:03:27.960Z,78.06
2019-05-14T07:04:26.037Z,79.13
2019-05-14T07:05:28.146Z,78.68
2019-05-14T07:06:28.826Z,78.47
2019-05-14T07:07:26.452Z,79.95
2019-05-14T07:08:28.498Z,77.69
2019-05-14T07:09:28.845Z,77.38
2019-05-14T07:10:28.687Z,78.92
2019-05-14T07:11:29.260Z,79.23
2019-05-14T07:12:29.407Z,79.33
2019-05-14T07:13:29.278Z,78.89
2019-05-14T07:14:28.598Z,77.96
2019-05-14T07:15:29.000Z,80.33
2019-05-14T07:16:28.923Z,80.12
2019-05-14T07:17:28.732Z,76.73
2019-05-14T07:18:45.187Z,77.45
2019-05-14T07:19:29.756Z,76.62
2019-05-14T07:20:29.709Z,76.73
2019-05-14T07:21:29.315Z,78.17
2019-05-14T07:22:30.073Z,78.78
2019-05-14T07:23:29.325Z,78.17
2019-05-14T07:24:29.479Z,77.55
2019-05-14T07:25:29.627Z,77.45
2019-05-14T07:26:29.873Z,76.28
2019-05-14T07:27:29.903Z,77.75
2019-05-14T07:28:30.053Z,76.07
2019-05-14T07:29:30.232Z,76.59
2019-05-14T07:30:30.405Z,77.92
2019-05-14T07:31:30.541Z,76.38
2019-05-14T07:32:30.694Z,77.62
2019-05-14T07:33:30.852Z,78.03
2019-05-14T07:34:31.039Z,78.23
2019-05-14T07:35:31.228Z,78.40
2019-05-14T07:36:31.371Z,77.68
2019-05-14T07:37:31.528Z,76.14
2019-05-14T07:38:31.693Z,77.99
2019-05-14T07:39:31.918Z,74.98
2019-05-14T07:40:32.094Z,73.85
2019-05-14T07:41:32.263Z,73.81
2019-05-14T07:42:32.441Z,75.56
2019-05-14T07:43:32.606Z,74.80
2019-05-14T07:44:33.799Z,74.87
2019-05-14T07:45:33.483Z,72.51
2019-05-14T07:46:34.180Z,72.72
2019-05-14T07:47:33.324Z,72.38
2019-05-14T07:48:33.519Z,72.27
2019-05-14T07:49:33.728Z,71.56
2019-05-14T07:50:33.874Z,70.97
2019-05-14T07:51:34.119Z,71.39
2019-05-14T07:52:34.283Z,71.59
2019-05-14T07:53:38.927Z,70.60
2019-05-14T07:54:38.751Z,71.97
2019-05-14T07:55:34.751Z,73.19
2019-05-14T07:56:34.920Z,72.85
2019-05-14T07:57:35.114Z,72.55
2019-05-14T07:58:35.316Z,71.86
2019-05-14T07:59:37.698Z,71.18
2019-05-14T08:00:35.653Z,72.41
2019-05-14T08:01:35.817Z,71.83
2019-05-14T08:02:37.941Z,71.04
2019-05-14T08:03:38.310Z,67.54
2019-05-14T08:04:38.147Z,66.04
2019-05-14T08:05:38.792Z,65.57
2019-05-14T08:06:39.200Z,65.06
2019-05-14T08:07:38.802Z,63.43
2019-05-14T08:08:38.553Z,61.56
2019-05-14T08:09:38.912Z,63.32
2019-05-14T08:10:39.208Z,65.37
2019-05-14T08:11:38.936Z,63.83
2019-05-14T08:12:39.292Z,64.93
2019-05-14T08:13:40.100Z,63.73
2019-05-14T08:14:55.043Z,61.99
2019-05-14T08:15:40.405Z,64.04
2019-05-14T08:16:38.530Z,62.78
2019-05-14T08:17:38.878Z,63.78
2019-05-14T08:18:39.983Z,63.09
2019-05-14T08:19:39.115Z,60.61
2019-05-14T08:20:39.290Z,59.66
2019-05-14T08:21:39.447Z,60.07
2019-05-14T08:22:39.661Z,62.82
2019-05-14T08:23:39.869Z,60.07
2019-05-14T08:24:40.087Z,58.95
2019-05-14T08:25:40.265Z,60.14
2019-05-14T08:26:42.877Z,60.05
2019-05-14T08:27:41.591Z,59.61
2019-05-14T08:28:40.777Z,60.73
2019-05-14T08:29:40.966Z,60.39
2019-05-14T08:30:41.154Z,61.90
2019-05-14T08:31:41.324Z,56.98
2019-05-14T08:32:41.516Z,57.29
2019-05-14T08:33:41.744Z,59.80
2019-05-14T08:34:41.909Z,55.83
2019-05-14T08:35:42.091Z,55.40
2019-05-14T08:36:42.276Z,57.43
2019-05-14T08:37:42.444Z,57.00
2019-05-14T08:38:45.354Z,55.86
2019-05-14T08:39:43.753Z,54.33
2019-05-14T08:40:42.888Z,56.13
2019-05-14T08:41:43.051Z,54.44
2019-05-14T08:42:43.213Z,55.73
2019-05-14T08:43:43.389Z,56.54
2019-05-14T08:44:43.591Z,56.67
2019-05-14T08:45:45.423Z,58.42
2019-05-14T08:46:45.344Z,57.71
2019-05-14T08:47:45.171Z,58.33
2019-05-14T08:48:44.335Z,58.20
2019-05-14T08:49:46.697Z,59.47
2019-05-14T08:50:48.157Z,56.29
2019-05-14T08:51:44.773Z,56.54
2019-05-14T08:52:44.976Z,56.92
2019-05-14T08:53:45.143Z,57.98
2019-05-14T08:54:45.340Z,55.76
2019-05-14T08:55:45.517Z,57.87
2019-05-14T08:56:45.675Z,59.39
2019-05-14T08:57:48.689Z,60.28
2019-05-14T08:58:49.153Z,57.79
2019-05-14T08:59:48.551Z,57.12
2019-05-14T09:00:48.309Z,56.87
2019-05-14T09:02:00.929Z,54.92
2019-05-14T09:02:48.813Z,56.21
2019-05-14T09:03:49.183Z,51.02
2019-05-14T09:04:54.052Z,50.51
2019-05-14T09:05:49.426Z,50.57
2019-05-14T09:06:48.961Z,51.55
2019-05-14T09:07:49.145Z,51.48
2019-05-14T09:08:49.610Z,53.45
2019-05-14T09:09:49.210Z,53.72
2019-05-14T09:10:49.704Z,54.61
2019-05-14T09:11:50.388Z,57.76
2019-05-14T09:12:49.733Z,54.16
2019-05-14T09:13:49.201Z,55.60
2019-05-14T09:14:50.081Z,55.58
2019-05-14T09:15:49.228Z,49.85
2019-05-14T09:16:51.078Z,48.46
2019-05-14T09:17:50.664Z,50.46
2019-05-14T09:18:50.809Z,48.41
2019-05-14T09:20:02.256Z,48.28
2019-05-14T09:20:52.059Z,49.75
2019-05-14T09:21:50.206Z,52.15
2019-05-14T09:22:50.356Z,49.47
2019-05-14T09:23:50.532Z,50.49
2019-05-14T09:24:50.756Z,49.07
2019-05-14T09:25:53.343Z,48.67
2019-05-14T09:26:52.177Z,49.21
2019-05-14T09:27:51.311Z,48.11
2019-05-14T09:28:51.486Z,49.21
2019-05-14T09:29:51.686Z,46.68
2019-05-14T09:30:51.863Z,47.14
2019-05-14T09:31:52.056Z,46.03
2019-05-14T09:32:52.226Z,44.84
2019-05-14T09:33:52.422Z,46.92
2019-05-14T09:34:52.602Z,47.45
2019-05-14T09:36:09.662Z,50.76
2019-05-14T09:36:54.931Z,51.04
2019-05-14T09:37:53.037Z,53.98
2019-05-14T09:38:53.208Z,52.31
2019-05-14T09:39:53.395Z,48.90
2019-05-14T09:41:07.088Z,48.42
2019-05-14T09:41:58.002Z,47.36
2019-05-14T09:42:53.870Z,46.81
2019-05-14T09:43:54.023Z,47.12
2019-05-14T09:44:54.204Z,47.02
2019-05-14T09:45:54.416Z,45.76
2019-05-14T09:46:54.608Z,41.81
2019-05-14T09:47:54.773Z,40.77
2019-05-14T09:48:54.945Z,39.84
2019-05-14T09:49:55.100Z,40.66
2019-05-14T09:50:55.311Z,40.75
2019-05-14T09:51:55.470Z,41.13
2019-05-14T09:52:55.668Z,39.42
2019-05-14T09:53:55.857Z,42.41
2019-05-14T09:54:58.434Z,40.48
2019-05-14T09:55:58.243Z,38.70
2019-05-14T09:56:58.965Z,42.80
2019-05-14T09:57:58.609Z,44.15
2019-05-14T09:58:58.727Z,46.43
2019-05-14T09:59:58.607Z,50.97
2019-05-14T10:00:59.109Z,45.73
2019-05-14T10:01:58.538Z,45.32
2019-05-14T10:02:59.652Z,44.13
2019-05-14T10:03:59.202Z,43.08
2019-05-14T10:04:59.790Z,45.34
2019-05-14T10:05:59.225Z,44.67
2019-05-14T10:06:59.446Z,42.10
2019-05-14T10:07:59.582Z,45.97
2019-05-14T10:08:59.529Z,42.25
2019-05-14T10:09:58.745Z,44.58
2019-05-14T10:11:00.238Z,43.89
2019-05-14T10:12:00.111Z,44.25
2019-05-14T10:13:01.265Z,40.26
2019-05-14T10:14:00.472Z,40.55
2019-05-14T10:14:59.628Z,43.46
2019-05-14T10:15:59.833Z,40.00
2019-05-14T10:17:00.042Z,40.75
2019-05-14T10:18:01.256Z,43.74
2019-05-14T10:19:00.400Z,44.25
2019-05-14T10:20:00.625Z,46.46
2019-05-14T10:21:00.807Z,48.94
2019-05-14T10:22:00.986Z,46.42
2019-05-14T10:23:01.192Z,44.17
2019-05-14T10:24:01.377Z,40.94
2019-05-14T10:25:01.544Z,44.29
2019-05-14T10:26:01.743Z,46.58
2019-05-14T10:27:01.942Z,42.72
2019-05-14T10:28:02.107Z,40.76
2019-05-14T10:29:02.296Z,41.83
2019-05-14T10:30:02.467Z,38.28
2019-05-14T10:31:03.825Z,41.57
2019-05-14T10:32:03.780Z,38.00
2019-05-14T10:33:09.173Z,39.73
2019-05-14T10:34:05.110Z,40.82
2019-05-14T10:35:03.232Z,42.90
2019-05-14T10:36:03.420Z,44.07
2019-05-14T10:37:03.621Z,44.90
2019-05-14T10:38:03.830Z,46.95
2019-05-14T10:39:03.944Z,45.76
2019-05-14T10:40:04.121Z,46.86
2019-05-14T10:41:04.303Z,46.17
2019-05-14T10:42:04.505Z,44.42
2019-05-14T10:43:04.678Z,45.50
2019-05-14T10:44:04.893Z,46.44
2019-05-14T10:45:05.089Z,43.75
2019-05-14T10:46:05.297Z,41.75
2019-05-14T10:47:05.537Z,41.78
2019-05-14T10:48:05.724Z,44.56
2019-05-14T10:49:16.361Z,42.88
2019-05-14T10:50:13.361Z,40.12
2019-05-14T10:51:09.638Z,40.20
2019-05-14T10:52:08.229Z,40.36
2019-05-14T10:53:09.074Z,40.06
2019-05-14T10:54:21.152Z,39.73
2019-05-14T10:55:09.024Z,41.77
2019-05-14T10:56:09.868Z,43.24
2019-05-14T10:57:09.565Z,46.46
2019-05-14T10:58:08.986Z,43.89
2019-05-14T10:59:09.460Z,42.74
2019-05-14T11:00:09.099Z,45.11
2019-05-14T11:01:11.211Z,44.34
2019-05-14T11:02:12.049Z,47.28
2019-05-14T11:03:09.341Z,45.09
2019-05-14T11:04:08.521Z,43.20
2019-05-14T11:05:08.780Z,44.03
2019-05-14T11:06:11.688Z,41.73
2019-05-14T11:07:10.143Z,39.36
2019-05-14T11:08:11.932Z,38.62
2019-05-14T11:09:10.548Z,35.48
2019-05-14T11:10:09.732Z,36.35
2019-05-14T11:11:10.783Z,37.63
2019-05-14T11:12:11.092Z,37.85
2019-05-14T11:13:10.252Z,36.92
2019-05-14T11:14:10.486Z,34.67
2019-05-14T11:15:10.690Z,35.68
2019-05-14T11:16:10.882Z,33.59
2019-05-14T11:17:12.012Z,34.39
2019-05-14T11:18:12.248Z,35.38
2019-05-14T11:19:11.484Z,33.81
2019-05-14T11:20:11.584Z,34.67
2019-05-14T11:21:22.689Z,35.38
2019-05-14T11:22:13.958Z,39.12
2019-05-14T11:23:12.210Z,35.98
2019-05-14T11:24:12.387Z,35.46
2019-05-14T11:25:12.569Z,36.83
2019-05-14T11:26:12.755Z,32.32
2019-05-14T11:27:12.939Z,32.14
2019-05-14T11:28:13.112Z,35.11
2019-05-14T11:29:13.300Z,33.28
2019-05-14T11:30:13.469Z,34.26
2019-05-14T11:31:13.631Z,34.03
2019-05-14T11:32:13.793Z,32.32
2019-05-14T11:33:13.990Z,31.22
2019-05-14T11:34:14.127Z,30.74
2019-05-14T11:35:14.306Z,32.63
2019-05-14T11:36:14.514Z,32.87
2019-05-14T11:37:14.711Z,34.91
2019-05-14T11:38:28.691Z,36.12
2019-05-14T11:39:18.092Z,39.69
2019-05-14T11:40:15.168Z,37.98
2019-05-14T11:41:15.332Z,35.90
2019-05-14T11:42:15.496Z,38.16
2019-05-14T11:43:15.655Z,36.28
2019-05-14T11:44:15.784Z,33.46
2019-05-14T11:45:15.933Z,35.60
2019-05-14T11:46:16.157Z,34.19
2019-05-14T11:47:18.149Z,34.98
2019-05-14T11:48:19.067Z,32.21
2019-05-14T11:49:19.162Z,33.62
2019-05-14T11:50:19.214Z,33.72
2019-05-14T11:51:18.962Z,33.40
2019-05-14T11:52:18.066Z,34.28
2019-05-14T11:53:19.865Z,34.23
2019-05-14T11:54:22.388Z,36.10
2019-05-14T11:55:18.905Z,36.26
2019-05-14T11:56:19.597Z,35.25
2019-05-14T11:57:19.390Z,37.45
2019-05-14T11:58:21.244Z,38.88
2019-05-14T11:59:19.499Z,40.37
2019-05-14T12:00:19.497Z,37.98
2019-05-14T12:01:19.790Z,40.94
2019-05-14T12:02:19.113Z,43.24
2019-05-14T12:03:19.888Z,43.00
2019-05-14T12:04:20.543Z,46.36
2019-05-14T12:05:19.405Z,44.36
2019-05-14T12:06:19.610Z,42.74
2019-05-14T12:07:19.800Z,41.69
2019-05-14T12:08:19.961Z,41.17
2019-05-14T12:09:20.142Z,37.63
2019-05-14T12:10:20.301Z,40.14
2019-05-14T12:11:20.456Z,36.15
2019-05-14T12:12:21.620Z,37.59
2019-05-14T12:13:20.746Z,35.26
2019-05-14T12:14:20.900Z,35.88
2019-05-14T12:15:21.049Z,34.08
2019-05-14T12:16:21.225Z,35.46
2019-05-14T12:17:21.376Z,38.14
2019-05-14T12:18:21.546Z,36.86
2019-05-14T12:19:21.683Z,38.15
2019-05-14T12:20:21.808Z,39.17
2019-05-14T12:21:22.010Z,35.73
2019-05-14T12:22:22.166Z,36.49
2019-05-14T12:23:22.307Z,33.95
2019-05-14T12:24:22.474Z,35.93
2019-05-14T12:25:22.616Z,37.48
2019-05-14T12:26:22.773Z,34.93
2019-05-14T12:27:22.933Z,35.18
2019-05-14T12:28:23.135Z,33.84
2019-05-14T12:29:23.325Z,36.57
2019-05-14T12:30:23.512Z,38.91
2019-05-14T12:31:23.670Z,38.13
2019-05-14T12:32:23.850Z,40.14
2019-05-14T12:33:24.023Z,39.76
2019-05-14T12:34:24.207Z,36.93
2019-05-14T12:35:24.393Z,36.38
2019-05-14T12:36:24.561Z,32.82
2019-05-14T12:37:24.742Z,34.03
2019-05-14T12:38:25.174Z,33.31
2019-05-14T12:39:25.576Z,33.54
2019-05-14T12:40:25.317Z,36.07
2019-05-14T12:41:25.493Z,39.68
2019-05-14T12:42:25.670Z,37.88
2019-05-14T12:43:27.988Z,38.95
2019-05-14T12:44:28.898Z,39.70
2019-05-14T12:45:26.308Z,39.08
2019-05-14T12:46:29.243Z,42.46
2019-05-14T12:47:28.975Z,39.81
2019-05-14T12:48:29.545Z,37.12
2019-05-14T12:49:27.131Z,37.66
2019-05-14T12:50:27.313Z,37.01
2019-05-14T12:51:27.553Z,35.43
2019-05-14T12:52:29.717Z,37.59
2019-05-14T12:53:28.739Z,33.81
2019-05-14T12:54:29.840Z,38.23